createdAt,value
2022-09-17T00:02:16.473Z,54.71
2022-09-17T00:04:44.157Z,54.89
2022-09-17T00:07:11.936Z,55.52
2022-09-17T00:09:40.921Z,54.85
2022-09-17T00:12:09.687Z,55.26
2022-09-17T00:14:37.277Z,54.92
2022-09-17T00:17:04.980Z,54.91
2022-09-17T00:19:32.667Z,54.93
2022-09-17T00:22:00.440Z,55.50
2022-09-17T00:24:28.270Z,55.45
2022-09-17T00:26:57.321Z,55.32
2022-09-17T00:29:25.051Z,55.48
2022-09-17T00:31:52.843Z,55.71
2022-09-17T00:34:20.600Z,56.04
2022-09-17T00:36:48.189Z,55.82
2022-09-17T00:39:16.558Z,55.88
2022-09-17T00:41:44.717Z,55.65
2022-09-17T00:44:46.739Z,55.64
2022-09-17T00:47:20.333Z,56.26
2022-09-17T00:49:48.488Z,55.88
2022-09-17T00:52:23.038Z,56.26
2022-09-17T00:54:53.905Z,56.50
2022-09-17T00:57:21.708Z,55.93
2022-09-17T00:59:50.860Z,56.07
2022-09-17T01:02:18.604Z,56.38
2022-09-17T01:04:46.236Z,56.08
2022-09-17T01:07:19.748Z,56.10
2022-09-17T01:09:50.390Z,56.18
2022-09-17T01:12:28.599Z,56.71
2022-09-17T01:15:05.332Z,56.17
2022-09-17T01:17:36.358Z,56.81
2022-09-17T01:20:40.568Z,56.17
2022-09-17T01:23:23.217Z,56.85
2022-09-17T01:25:54.891Z,56.27
2022-09-17T01:28:29.332Z,56.95
2022-09-17T01:31:17.534Z,57.04
2022-09-17T01:33:49.494Z,57.08
2022-09-17T01:36:29.981Z,56.69
2022-09-17T01:39:01.123Z,56.70
2022-09-17T01:41:32.216Z,56.65
2022-09-17T01:44:02.553Z,57.10
2022-09-17T01:46:33.887Z,57.24
2022-09-17T01:49:03.074Z,56.80
2022-09-17T01:51:32.080Z,56.88
2022-09-17T01:54:03.061Z,57.27
2022-09-17T01:56:33.034Z,56.92
2022-09-17T01:59:03.062Z,57.30
2022-09-17T02:01:32.989Z,56.71
2022-09-17T02:04:03.626Z,57.56
2022-09-17T02:06:32.521Z,57.38
2022-09-17T02:09:01.734Z,57.38
2022-09-17T02:11:29.429Z,57.19
2022-09-17T02:13:59.135Z,57.33
2022-09-17T02:16:28.259Z,57.33
2022-09-17T02:18:59.432Z,57.07
2022-09-17T02:21:31.222Z,56.99
2022-09-17T02:24:06.175Z,56.96
2022-09-17T02:26:33.806Z,57.13
2022-09-17T02:29:03.163Z,56.80
2022-09-17T02:31:30.826Z,56.98
2022-09-17T02:34:02.780Z,56.91
2022-09-17T02:36:32.058Z,57.31
2022-09-17T02:39:01.519Z,57.37
2022-09-17T02:41:37.425Z,57.44
2022-09-17T02:44:10.564Z,57.06
2022-09-17T02:46:48.290Z,57.78
2022-09-17T02:49:26.356Z,57.40
2022-09-17T02:51:57.337Z,57.25
2022-09-17T02:54:27.060Z,57.58
2022-09-17T02:56:59.477Z,57.33
2022-09-17T02:59:30.555Z,57.08
2022-09-17T03:02:00.027Z,56.90
2022-09-17T03:04:29.562Z,56.97
2022-09-17T03:06:58.091Z,57.38
2022-09-17T03:09:25.896Z,56.94
2022-09-17T03:11:53.509Z,57.62
2022-09-17T03:14:21.261Z,57.56
2022-09-17T03:16:49.015Z,57.62
2022-09-17T03:19:16.650Z,56.91
2022-09-17T03:21:45.751Z,57.73
2022-09-17T03:24:13.567Z,57.26
2022-09-17T03:26:41.320Z,57.71
2022-09-17T03:29:09.195Z,57.73
2022-09-17T03:31:37.041Z,57.08
2022-09-17T03:34:04.821Z,57.59
2022-09-17T03:36:32.425Z,57.69
2022-09-17T03:39:02.164Z,57.18
2022-09-17T03:41:29.783Z,57.89
2022-09-17T03:43:57.502Z,57.74
2022-09-17T03:46:25.119Z,57.76
2022-09-17T03:48:52.934Z,57.92
2022-09-17T03:51:20.512Z,57.79
2022-09-17T03:53:48.340Z,57.67
2022-09-17T03:56:17.787Z,57.81
2022-09-17T03:58:51.774Z,57.36
2022-09-17T04:01:19.382Z,57.24
2022-09-17T04:03:47.074Z,57.25
2022-09-17T04:06:14.703Z,57.70
2022-09-17T04:08:43.559Z,57.81
2022-09-17T04:11:11.245Z,57.65
2022-09-17T04:13:40.339Z,57.18
2022-09-17T04:16:08.424Z,57.37
2022-09-17T04:18:36.093Z,57.17
2022-09-17T04:21:03.861Z,57.21
2022-09-17T04:23:31.463Z,56.90
2022-09-17T04:25:59.243Z,56.99
2022-09-17T04:28:26.913Z,57.59
2022-09-17T04:30:56.049Z,57.40
2022-09-17T04:33:23.648Z,56.89
2022-09-17T04:35:51.395Z,56.79
2022-09-17T04:40:54.484Z,57.17
2022-09-17T04:43:22.100Z,56.85
2022-09-17T04:45:50.550Z,56.98
2022-09-17T04:48:19.515Z,57.32
2022-09-17T04:50:47.521Z,57.18
2022-09-17T04:53:15.167Z,57.38
2022-09-17T04:55:43.635Z,57.06
2022-09-17T04:58:11.366Z,57.30
2022-09-17T05:00:39.381Z,57.37
2022-09-17T05:03:07.005Z,57.36
2022-09-17T05:05:36.096Z,57.52
2022-09-17T05:08:03.836Z,57.98
2022-09-17T05:10:31.672Z,58.08
2022-09-17T05:12:59.279Z,57.23
2022-09-17T05:15:27.734Z,57.35
2022-09-17T05:17:55.431Z,57.69
2022-09-17T05:20:23.367Z,57.76
2022-09-17T05:22:53.043Z,57.87
2022-09-17T05:25:24.061Z,57.40
2022-09-17T05:27:52.107Z,57.54
2022-09-17T05:30:19.900Z,57.47
2022-09-17T05:32:48.026Z,57.55
2022-09-17T05:35:15.836Z,57.78
2022-09-17T05:37:43.732Z,57.56
2022-09-17T05:40:12.800Z,57.58
2022-09-17T05:42:40.778Z,57.48
2022-09-17T05:45:09.469Z,57.72
2022-09-17T05:47:37.168Z,57.92
2022-09-17T05:50:05.313Z,57.75
2022-09-17T05:52:33.271Z,58.05
2022-09-17T05:55:00.900Z,57.99
2022-09-17T05:57:31.412Z,58.21
2022-09-17T05:59:59.047Z,58.01
2022-09-17T06:02:26.706Z,57.41
2022-09-17T06:04:54.864Z,57.20
2022-09-17T06:07:22.531Z,56.93
2022-09-17T06:09:50.472Z,56.47
2022-09-17T06:12:18.106Z,56.76
2022-09-17T06:14:47.132Z,56.49
2022-09-17T06:17:17.032Z,56.06
2022-09-17T06:19:47.984Z,56.08
2022-09-17T06:22:28.202Z,56.60
2022-09-17T06:24:55.812Z,56.25
2022-09-17T06:27:23.477Z,55.95
2022-09-17T06:29:52.417Z,56.20
2022-09-17T06:32:21.058Z,55.40
2022-09-17T06:34:49.418Z,55.37
2022-09-17T06:37:19.706Z,55.46
2022-09-17T06:39:54.037Z,55.16
2022-09-17T06:42:21.997Z,54.96
2022-09-17T06:44:49.596Z,54.78
2022-09-17T06:47:18.874Z,54.62
2022-09-17T06:49:46.500Z,54.28
2022-09-17T06:52:14.110Z,54.31
2022-09-17T06:54:41.891Z,54.38
2022-09-17T06:57:09.525Z,54.53
2022-09-17T06:59:37.279Z,54.65
2022-09-17T07:02:05.505Z,54.73
2022-09-17T07:04:34.701Z,54.87
2022-09-17T07:07:02.317Z,54.84
2022-09-17T07:09:30.122Z,54.39
2022-09-17T07:11:57.763Z,54.79
2022-09-17T07:14:25.891Z,55.00
2022-09-17T07:16:53.554Z,54.83
2022-09-17T07:19:21.462Z,54.66
2022-09-17T07:21:50.861Z,54.85
2022-09-17T07:24:18.630Z,54.56
2022-09-17T07:26:46.363Z,53.93
2022-09-17T07:29:13.958Z,52.83
2022-09-17T07:31:41.713Z,52.44
2022-09-17T07:34:09.393Z,51.35
2022-09-17T07:36:50.559Z,49.83
2022-09-17T07:39:18.743Z,48.25
2022-09-17T07:41:46.376Z,46.88
2022-09-17T07:44:14.110Z,45.60
2022-09-17T07:46:41.771Z,43.64
2022-09-17T07:49:09.558Z,42.96
2022-09-17T07:51:37.259Z,42.15
2022-09-17T07:54:07.121Z,40.38
2022-09-17T07:56:34.945Z,38.71
2022-09-17T07:59:03.314Z,38.48
2022-09-17T08:01:33.933Z,38.78
2022-09-17T08:04:01.974Z,39.11
2022-09-17T08:11:57.013Z,38.28
2022-09-17T08:14:29.466Z,38.65
2022-09-17T08:16:57.801Z,36.77
2022-09-17T08:19:25.531Z,36.34
2022-09-17T08:21:53.352Z,35.91
2022-09-17T08:24:21.033Z,34.88
2022-09-17T08:26:50.087Z,33.89
2022-09-17T08:29:17.952Z,31.70
2022-09-17T08:31:45.688Z,31.53
2022-09-17T08:34:14.008Z,30.40
2022-09-17T08:36:41.586Z,29.55
2022-09-17T08:39:11.126Z,28.74
2022-09-17T08:41:51.238Z,28.66
2022-09-17T08:47:21.981Z,27.16
2022-09-17T08:49:51.431Z,27.54
2022-09-17T08:52:37.888Z,26.43
2022-09-17T08:55:09.003Z,26.46
2022-09-17T08:57:41.254Z,27.03
2022-09-17T09:00:11.645Z,26.36
2022-09-17T09:02:47.289Z,26.10
2022-09-17T09:05:16.480Z,25.23
2022-09-17T09:07:45.801Z,24.70
2022-09-17T09:10:16.929Z,25.64
2022-09-17T09:12:45.936Z,25.56
2022-09-17T09:15:30.292Z,26.08
2022-09-17T09:17:58.309Z,26.43
2022-09-17T09:20:44.382Z,23.98
2022-09-17T09:23:15.344Z,24.19
2022-09-17T09:25:46.376Z,24.67
2022-09-17T09:28:31.836Z,25.71
2022-09-17T09:31:03.707Z,25.66
2022-09-17T09:33:31.997Z,26.24
2022-09-17T09:35:59.703Z,25.72
2022-09-17T09:38:32.273Z,24.17
2022-09-17T09:41:03.652Z,22.40
2022-09-17T09:44:02.150Z,22.86
2022-09-17T09:46:32.848Z,23.47
2022-09-17T09:49:06.952Z,23.93
2022-09-17T09:51:39.810Z,23.29
2022-09-17T09:54:20.752Z,23.35
2022-09-17T09:56:58.395Z,22.46
2022-09-17T09:59:27.486Z,21.32
2022-09-17T10:01:55.269Z,20.37
2022-09-17T10:04:23.896Z,21.08
2022-09-17T10:06:53.448Z,21.96
2022-09-17T10:09:22.261Z,22.87
2022-09-17T10:12:03.967Z,22.98
2022-09-17T10:14:33.532Z,23.62
2022-09-17T10:17:21.815Z,23.70
2022-09-17T10:20:22.069Z,25.46
2022-09-17T10:22:50.485Z,26.29
2022-09-17T10:25:24.089Z,27.13
2022-09-17T10:27:51.783Z,27.36
2022-09-17T10:30:20.739Z,27.40
2022-09-17T10:33:09.415Z,27.00
2022-09-17T10:35:37.014Z,26.25
2022-09-17T10:38:04.628Z,26.07
2022-09-17T10:40:33.380Z,26.39
2022-09-17T10:43:23.140Z,24.68
2022-09-17T10:46:01.970Z,24.50
2022-09-17T10:48:31.762Z,23.78
2022-09-17T10:50:59.360Z,24.89
2022-09-17T10:53:30.466Z,26.06
2022-09-17T10:56:07.128Z,27.06
2022-09-17T10:58:42.555Z,27.54
2022-09-17T11:01:19.577Z,27.16
2022-09-17T11:04:21.271Z,27.57
2022-09-17T11:07:06.047Z,28.73
2022-09-17T11:09:39.629Z,29.37
2022-09-17T11:12:22.526Z,29.74
2022-09-17T11:14:51.943Z,31.13
2022-09-17T11:17:33.249Z,32.15
2022-09-17T11:20:02.948Z,32.82
2022-09-17T11:22:45.643Z,30.66
2022-09-17T11:25:24.389Z,26.40
2022-09-17T11:28:05.376Z,22.27
2022-09-17T11:30:34.890Z,22.20
2022-09-17T11:33:20.787Z,21.49
2022-09-17T11:35:49.052Z,20.47
2022-09-17T11:38:19.345Z,20.51
2022-09-17T11:40:48.359Z,21.22
2022-09-17T11:43:20.573Z,22.42
2022-09-17T11:45:54.622Z,23.98
2022-09-17T11:48:25.332Z,25.47
2022-09-17T11:50:54.742Z,26.96
2022-09-17T11:53:24.477Z,29.03
2022-09-17T11:55:53.349Z,30.65
2022-09-17T11:58:25.457Z,31.15
2022-09-17T12:00:54.991Z,32.80
2022-09-17T12:03:26.021Z,34.05
2022-09-17T12:05:55.305Z,35.23
2022-09-17T12:08:24.867Z,33.92
2022-09-17T12:10:54.042Z,34.85
2022-09-17T12:13:28.353Z,35.88
2022-09-17T12:16:05.014Z,36.16
2022-09-17T12:18:43.727Z,36.88
2022-09-17T12:21:11.700Z,37.61
2022-09-17T12:23:42.016Z,38.21
2022-09-17T12:26:23.986Z,38.58
2022-09-17T12:28:54.621Z,39.09
2022-09-17T12:31:24.821Z,39.97
2022-09-17T12:33:55.634Z,40.09
2022-09-17T12:36:32.031Z,40.00
2022-09-17T12:39:32.119Z,40.02
2022-09-17T12:42:03.276Z,39.26
2022-09-17T12:44:59.094Z,39.27
2022-09-17T12:48:10.027Z,39.04
2022-09-17T12:50:45.581Z,39.61
2022-09-17T12:53:20.539Z,39.42
2022-09-17T12:55:56.538Z,39.72
2022-09-17T12:58:29.710Z,40.48
2022-09-17T13:01:01.934Z,41.20
2022-09-17T13:03:31.389Z,41.46
2022-09-17T13:06:18.541Z,41.53
2022-09-17T13:09:13.858Z,41.27
2022-09-17T13:11:55.618Z,41.11
2022-09-17T13:14:26.136Z,41.40
2022-09-17T13:16:55.369Z,41.82
2022-09-17T13:19:29.897Z,41.74
2022-09-17T13:22:02.669Z,41.90
2022-09-17T13:24:31.290Z,42.52
2022-09-17T13:27:00.026Z,42.27
2022-09-17T13:29:59.008Z,41.80
2022-09-17T13:32:46.026Z,42.15
2022-09-17T13:35:51.391Z,42.34
2022-09-17T13:38:23.775Z,42.55
2022-09-17T13:40:52.342Z,42.24
2022-09-17T13:43:24.465Z,42.51
2022-09-17T13:46:18.582Z,41.35
2022-09-17T13:48:50.327Z,42.03
2022-09-17T13:51:44.936Z,41.82
2022-09-17T13:54:14.043Z,41.42
2022-09-17T13:56:45.889Z,41.06
2022-09-17T13:59:14.994Z,41.44
2022-09-17T14:02:19.624Z,40.91
2022-09-17T14:04:52.367Z,40.91
2022-09-17T14:07:35.748Z,40.77
2022-09-17T14:10:26.545Z,41.23
2022-09-17T14:13:26.188Z,42.03
2022-09-17T14:16:02.478Z,42.65
2022-09-17T14:18:43.704Z,42.20
2022-09-17T14:21:16.886Z,42.95
2022-09-17T14:23:45.833Z,43.55
2022-09-17T14:26:20.737Z,44.44
2022-09-17T14:28:51.511Z,44.76
2022-09-17T14:31:19.992Z,44.49
2022-09-17T14:33:47.830Z,44.79
2022-09-17T14:36:17.534Z,44.85
2022-09-17T14:38:46.290Z,44.74
2022-09-17T14:41:22.200Z,44.97
2022-09-17T14:43:52.005Z,45.26
2022-09-17T14:46:22.379Z,45.83
2022-09-17T14:48:50.470Z,45.50
2022-09-17T14:51:29.503Z,44.88
2022-09-17T14:54:22.465Z,45.14
2022-09-17T14:56:57.882Z,45.17
2022-09-17T14:59:47.427Z,45.17
2022-09-17T15:02:32.823Z,45.83
2022-09-17T15:05:01.046Z,45.71
2022-09-17T15:07:28.808Z,45.80
2022-09-17T15:10:07.393Z,45.31
2022-09-17T15:12:35.227Z,45.39
2022-09-17T15:15:04.668Z,45.72
2022-09-17T15:17:33.330Z,45.37
2022-09-17T15:20:01.059Z,45.03
2022-09-17T15:22:29.652Z,44.73
2022-09-17T15:24:57.922Z,44.91
2022-09-17T15:27:27.493Z,44.98
2022-09-17T15:29:56.946Z,45.30
2022-09-17T15:32:25.907Z,45.90
2022-09-17T15:35:25.289Z,45.95
2022-09-17T15:38:18.909Z,46.17
2022-09-17T15:40:41.949Z,46.55
2022-09-17T15:43:16.833Z,46.47
2022-09-17T15:45:44.882Z,47.10
2022-09-17T15:48:25.060Z,47.00
2022-09-17T15:50:53.959Z,46.84
2022-09-17T15:53:26.044Z,47.08
2022-09-17T15:56:02.143Z,46.66
2022-09-17T15:58:32.986Z,46.56
2022-09-17T16:01:41.351Z,46.91
2022-09-17T16:04:18.858Z,46.88
2022-09-17T16:06:59.767Z,46.84
2022-09-17T16:09:43.007Z,46.21
2022-09-17T16:12:13.227Z,46.72
2022-09-17T16:14:49.482Z,46.85
2022-09-17T16:17:35.621Z,45.76
2022-09-17T16:20:10.125Z,45.75
2022-09-17T16:22:38.250Z,46.02
2022-09-17T16:25:06.907Z,46.87
2022-09-17T16:27:39.142Z,47.49
2022-09-17T16:30:09.331Z,47.79
2022-09-17T16:32:36.957Z,48.04
2022-09-17T16:35:05.095Z,48.38
2022-09-17T16:37:34.251Z,48.92
2022-09-17T16:40:02.323Z,49.21
2022-09-17T16:42:31.745Z,49.28
2022-09-17T16:45:01.037Z,48.97
2022-09-17T16:47:30.480Z,49.28
2022-09-17T16:52:25.920Z,49.74
2022-09-17T16:57:22.969Z,49.99
2022-09-17T16:59:50.713Z,50.29
2022-09-17T17:02:18.341Z,50.25
2022-09-17T17:04:46.542Z,50.33
2022-09-17T17:07:14.249Z,50.06
2022-09-17T17:09:41.877Z,50.34
2022-09-17T17:12:09.524Z,50.20
2022-09-17T17:14:38.503Z,50.32
2022-09-17T17:17:06.216Z,49.99
2022-09-17T17:19:34.723Z,50.66
2022-09-17T17:22:02.465Z,50.61
2022-09-17T17:24:31.110Z,51.04
2022-09-17T17:26:58.701Z,51.51
2022-09-17T17:29:26.500Z,51.67
2022-09-17T17:31:55.571Z,51.67
2022-09-17T17:34:23.165Z,52.07
2022-09-17T17:36:50.984Z,52.26
2022-09-17T17:39:18.644Z,52.44
2022-09-17T17:41:51.631Z,52.61
2022-09-17T17:44:19.746Z,53.29
2022-09-17T17:46:47.424Z,53.30
2022-09-17T17:49:16.973Z,53.68
2022-09-17T17:51:45.019Z,53.97
2022-09-17T17:54:12.774Z,53.78
2022-09-17T17:56:40.402Z,54.06
2022-09-17T17:59:07.989Z,53.86
2022-09-17T18:01:35.910Z,53.98
2022-09-17T18:04:05.183Z,53.92
2022-09-17T18:06:34.385Z,54.14
2022-09-17T18:09:02.217Z,54.04
2022-09-17T18:11:30.008Z,54.66
2022-09-17T18:13:58.355Z,54.75
2022-09-17T18:16:26.171Z,54.95
2022-09-17T18:18:53.933Z,54.96
2022-09-17T18:21:22.810Z,55.18
2022-09-17T18:23:51.958Z,55.45
2022-09-17T18:26:20.296Z,55.19
2022-09-17T18:28:48.225Z,55.70
2022-09-17T18:31:20.887Z,55.90
2022-09-17T18:33:48.559Z,55.50
2022-09-17T18:36:16.171Z,55.85
2022-09-17T18:38:43.859Z,55.78
2022-09-17T18:41:13.356Z,55.90
2022-09-17T18:43:41.285Z,55.96
2022-09-17T18:46:09.720Z,56.07
2022-09-17T18:48:37.728Z,55.53
2022-09-17T18:51:06.567Z,55.81
2022-09-17T18:53:36.086Z,56.04
2022-09-17T18:56:05.002Z,56.04
2022-09-17T18:58:33.989Z,56.48
2022-09-17T19:01:01.762Z,56.34
2022-09-17T19:03:31.933Z,56.13
2022-09-17T19:06:00.317Z,56.10
2022-09-17T19:08:29.280Z,55.76
2022-09-17T19:10:58.720Z,55.26
2022-09-17T19:13:26.642Z,54.62
2022-09-17T19:16:00.132Z,54.51
2022-09-17T19:18:27.926Z,54.42
2022-09-17T19:21:00.443Z,54.47
2022-09-17T19:23:28.156Z,54.41
2022-09-17T19:25:55.780Z,53.75
2022-09-17T19:28:23.529Z,53.99
2022-09-17T19:30:51.302Z,53.80
2022-09-17T19:33:20.642Z,54.40
2022-09-17T19:35:50.557Z,54.06
2022-09-17T19:38:18.389Z,54.24
2022-09-17T19:40:55.652Z,54.57
2022-09-17T19:43:23.365Z,54.54
2022-09-17T19:45:51.122Z,54.79
2022-09-17T19:59:00.025Z,54.75
2022-09-17T20:01:27.662Z,55.04
2022-09-17T20:03:57.398Z,55.08
2022-09-17T20:06:25.029Z,54.93
2022-09-17T20:08:53.795Z,54.73
2022-09-17T20:11:22.312Z,54.87
2022-09-17T20:13:52.273Z,54.88
2022-09-17T20:16:22.522Z,55.18
2022-09-17T20:18:50.617Z,55.00
2022-09-17T20:21:18.942Z,55.56
2022-09-17T20:23:46.631Z,55.32
2022-09-17T20:26:14.541Z,55.38
2022-09-17T20:28:42.335Z,55.40
2022-09-17T20:31:12.022Z,55.63
2022-09-17T20:33:41.173Z,55.62
2022-09-17T20:36:10.845Z,55.19
2022-09-17T20:41:27.377Z,54.95
2022-09-17T20:43:55.106Z,54.82
2022-09-17T20:46:28.352Z,54.97
2022-09-17T20:48:58.584Z,55.04
2022-09-17T20:51:27.621Z,54.97
2022-09-17T20:53:56.989Z,55.23
2022-09-17T20:56:25.564Z,54.74
2022-09-17T20:58:54.671Z,54.93
2022-09-17T21:01:23.302Z,54.83
2022-09-17T21:03:51.829Z,54.39
2022-09-17T21:06:22.073Z,54.82
2022-09-17T21:08:49.848Z,54.46
2022-09-17T21:11:17.789Z,54.25
2022-09-17T21:13:45.754Z,54.30
2022-09-17T21:16:14.589Z,54.33
2022-09-17T21:18:42.506Z,54.08
2022-09-17T21:21:11.781Z,54.20
2022-09-17T21:23:41.053Z,54.11
2022-09-17T21:26:09.765Z,53.77
2022-09-17T21:28:37.595Z,53.83
2022-09-17T21:31:06.496Z,53.72
2022-09-17T21:33:35.255Z,54.06
2022-09-17T21:36:04.820Z,54.15
2022-09-17T21:38:32.889Z,53.80
2022-09-17T21:41:02.932Z,53.95
2022-09-17T21:43:30.863Z,53.83
2022-09-17T21:45:59.905Z,54.13
2022-09-17T21:48:27.703Z,53.96
2022-09-17T21:50:55.397Z,53.94
2022-09-17T21:53:23.085Z,53.87
2022-09-17T21:55:50.903Z,53.89
2022-09-17T21:58:20.104Z,54.49
2022-09-17T22:00:49.435Z,53.99
2022-09-17T22:03:20.237Z,54.23
2022-09-17T22:05:47.946Z,54.50
2022-09-17T22:08:15.571Z,54.50
2022-09-17T22:10:43.267Z,54.43
2022-09-17T22:13:10.964Z,54.47
2022-09-17T22:15:40.157Z,54.27
2022-09-17T22:18:12.690Z,54.71
2022-09-17T22:20:43.535Z,54.72
2022-09-17T22:23:11.217Z,54.64
2022-09-17T22:25:38.857Z,54.63
2022-09-17T22:28:20.588Z,54.65
2022-09-17T22:30:50.632Z,55.20
2022-09-17T22:33:18.292Z,55.26
2022-09-17T22:35:46.035Z,54.93
2022-09-17T22:38:13.642Z,55.25
2022-09-17T22:40:42.330Z,55.23
2022-09-17T22:43:09.937Z,55.39
2022-09-17T22:45:37.653Z,55.25
2022-09-17T22:48:06.794Z,55.68
2022-09-17T22:50:34.546Z,55.76
2022-09-17T22:53:02.518Z,55.72
2022-09-17T22:55:30.874Z,55.50
2022-09-17T22:57:58.468Z,55.49
2022-09-17T23:00:26.241Z,55.55
2022-09-17T23:02:53.906Z,55.50
2022-09-17T23:05:23.092Z,55.63
2022-09-17T23:07:50.828Z,56.17
2022-09-17T23:10:18.949Z,55.78
2022-09-17T23:12:46.599Z,55.88
2022-09-17T23:15:14.417Z,56.07
2022-09-17T23:17:43.551Z,56.33
2022-09-17T23:20:12.175Z,55.94
2022-09-17T23:22:41.138Z,56.05
2022-09-17T23:25:10.226Z,56.14
2022-09-17T23:27:37.927Z,56.14
2022-09-17T23:30:06.157Z,56.67
2022-09-17T23:32:33.856Z,56.41
2022-09-17T23:35:01.659Z,56.43
2022-09-17T23:37:29.280Z,56.53
2022-09-17T23:39:58.457Z,56.35
2022-09-17T23:42:26.072Z,56.38
2022-09-17T23:44:53.789Z,56.70
2022-09-17T23:47:21.624Z,56.84
2022-09-17T23:49:49.857Z,56.62
2022-09-17T23:52:17.444Z,57.01
2022-09-17T23:54:45.043Z,56.74
2022-09-17T23:57:14.382Z,56.77
2022-09-17T23:59:41.997Z,56.64
